createdAt,value
2018-04-19T00:00:21.820Z,14.90
2018-04-19T00:02:49.316Z,14.90
2018-04-19T00:05:16.776Z,15.00
2018-04-19T00:07:44.225Z,15.00
2018-04-19T00:10:11.700Z,15.00
2018-04-19T00:12:39.167Z,15.00
2018-04-19T00:15:06.609Z,15.00
2018-04-19T00:17:34.861Z,15.00
2018-04-19T00:20:02.318Z,15.00
2018-04-19T00:22:29.775Z,15.10
2018-04-19T00:24:57.232Z,15.10
2018-04-19T00:27:25.060Z,15.10
2018-04-19T00:29:52.519Z,15.10
2018-04-19T00:32:19.981Z,15.10
2018-04-19T00:34:47.437Z,15.10
2018-04-19T00:37:14.891Z,15.10
2018-04-19T00:39:42.356Z,15.10
2018-04-19T00:42:09.860Z,15.20
2018-04-19T00:44:37.320Z,15.20
2018-04-19T00:47:04.772Z,15.30
2018-04-19T00:49:32.237Z,15.30
2018-04-19T00:51:59.686Z,15.30
2018-04-19T00:54:27.936Z,15.30
2018-04-19T00:56:55.404Z,15.30
2018-04-19T00:59:22.849Z,15.20
2018-04-19T01:01:50.339Z,15.20
2018-04-19T01:04:17.787Z,15.20
2018-04-19T01:06:45.380Z,15.30
2018-04-19T01:09:12.828Z,15.40
2018-04-19T01:11:40.278Z,15.40
2018-04-19T01:14:07.737Z,15.50
2018-04-19T01:16:35.982Z,15.40
2018-04-19T01:19:03.517Z,15.40
2018-04-19T01:21:30.977Z,15.40
2018-04-19T01:23:58.793Z,15.30
2018-04-19T01:26:26.266Z,15.30
2018-04-19T01:28:53.710Z,15.30
2018-04-19T01:31:21.204Z,15.20
2018-04-19T01:33:48.659Z,15.10
2018-04-19T01:36:24.868Z,15.10
2018-04-19T01:38:52.325Z,15.10
2018-04-19T01:41:19.880Z,15.00
2018-04-19T01:43:47.328Z,15.00
2018-04-19T01:46:14.830Z,14.90
2018-04-19T01:48:42.288Z,14.80
2018-04-19T01:51:09.736Z,14.70
2018-04-19T01:53:37.202Z,14.70
2018-04-19T01:56:04.717Z,14.60
2018-04-19T01:58:32.245Z,14.60
2018-04-19T02:01:00.448Z,14.40
2018-04-19T02:03:28.312Z,14.40
2018-04-19T02:05:55.817Z,14.20
2018-04-19T02:08:23.296Z,14.10
2018-04-19T02:10:50.766Z,14.00
2018-04-19T02:13:18.217Z,13.90
2018-04-19T02:15:45.677Z,13.80
2018-04-19T02:18:13.123Z,13.70
2018-04-19T02:20:41.453Z,13.60
2018-04-19T02:23:08.903Z,13.60
2018-04-19T02:25:36.350Z,13.60
2018-04-19T02:28:03.839Z,13.60
2018-04-19T02:30:31.280Z,13.50
2018-04-19T02:32:59.505Z,13.40
2018-04-19T02:35:27.002Z,13.40
2018-04-19T02:37:54.467Z,13.30
2018-04-19T02:40:21.956Z,13.30
2018-04-19T02:42:49.516Z,13.20
2018-04-19T02:45:16.984Z,13.10
2018-04-19T02:47:44.429Z,13.00
2018-04-19T02:50:11.920Z,13.00
2018-04-19T02:52:39.372Z,12.90
2018-04-19T02:55:06.840Z,12.90
2018-04-19T02:57:34.340Z,12.80
2018-04-19T03:00:01.784Z,12.80
2018-04-19T03:02:29.257Z,12.70
2018-04-19T03:04:56.712Z,12.70
2018-04-19T03:07:24.177Z,12.70
2018-04-19T03:09:51.624Z,12.60
2018-04-19T03:12:19.873Z,12.50
2018-04-19T03:14:47.332Z,12.50
2018-04-19T03:17:14.780Z,12.40
2018-04-19T03:19:42.248Z,12.40
2018-04-19T03:22:09.740Z,12.30
2018-04-19T03:24:37.204Z,12.30
2018-04-19T03:27:04.648Z,12.30
2018-04-19T03:29:32.222Z,12.30
2018-04-19T03:31:59.733Z,12.20
2018-04-19T03:34:27.297Z,12.20
2018-04-19T03:36:54.746Z,12.20
2018-04-19T03:39:22.196Z,12.00
2018-04-19T03:41:49.656Z,12.10
2018-04-19T03:44:17.864Z,11.90
2018-04-19T03:46:45.364Z,11.90
2018-04-19T03:49:12.822Z,11.90
2018-04-19T03:51:40.348Z,11.80
2018-04-19T03:54:08.593Z,11.70
2018-04-19T03:56:36.041Z,11.70
2018-04-19T03:59:03.504Z,11.70
2018-04-19T04:01:31.008Z,11.60
2018-04-19T04:03:58.475Z,11.60
2018-04-19T04:06:26.013Z,11.60
2018-04-19T04:08:54.278Z,11.60
2018-04-19T04:11:21.775Z,11.60
2018-04-19T04:13:49.224Z,11.60
2018-04-19T04:16:29.429Z,11.60
2018-04-19T04:19:08.900Z,11.60
2018-04-19T04:21:48.196Z,11.50
2018-04-19T04:24:16.501Z,11.40
2018-04-19T04:26:43.967Z,11.40
2018-04-19T04:29:12.192Z,11.40
2018-04-19T04:31:39.664Z,11.40
2018-04-19T04:34:07.115Z,11.40
2018-04-19T04:36:34.565Z,11.50
2018-04-19T04:39:02.024Z,11.40
2018-04-19T04:41:30.245Z,11.40
2018-04-19T04:43:57.811Z,11.40
2018-04-19T04:46:25.262Z,11.40
2018-04-19T04:48:52.733Z,11.40
2018-04-19T04:51:20.245Z,11.40
2018-04-19T04:53:47.704Z,11.40
2018-04-19T04:56:15.170Z,11.30
2018-04-19T04:58:42.656Z,11.30
2018-04-19T05:01:10.125Z,11.30
2018-04-19T05:03:37.598Z,11.40
2018-04-19T05:06:05.072Z,11.40
2018-04-19T05:08:32.560Z,11.50
2018-04-19T05:11:00.007Z,11.60
2018-04-19T05:13:27.464Z,11.60
2018-04-19T05:15:54.917Z,11.60
2018-04-19T05:18:22.384Z,11.70
2018-04-19T05:20:49.836Z,11.70
2018-04-19T05:23:17.320Z,11.70
2018-04-19T05:25:44.768Z,11.80
2018-04-19T05:28:13.014Z,12.00
2018-04-19T05:30:40.482Z,11.90
2018-04-19T05:33:07.944Z,12.00
2018-04-19T05:35:35.424Z,12.10
2018-04-19T07:52:39.048Z,25.90
2018-04-19T07:55:06.593Z,25.80
2018-04-19T07:57:34.037Z,25.90
2018-04-19T08:00:01.498Z,26.10
2018-04-19T08:02:28.995Z,26.20
2018-04-19T08:04:56.463Z,26.50
2018-04-19T08:07:23.940Z,26.70
2018-04-19T08:09:51.417Z,27.10
2018-04-19T08:12:18.876Z,27.40
2018-04-19T08:14:46.331Z,27.30
2018-04-19T08:17:13.846Z,27.30
2018-04-19T08:19:41.385Z,27.70
2018-04-19T08:22:08.931Z,27.60
2018-04-19T08:24:36.393Z,27.50
2018-04-19T08:27:04.608Z,27.90
2018-04-19T08:29:32.152Z,27.90
2018-04-19T08:32:00.356Z,27.80
2018-04-19T08:34:27.925Z,27.80
2018-04-19T08:36:55.429Z,28.10
2018-04-19T08:39:22.999Z,28.40
2018-04-19T08:41:50.450Z,28.50
2018-04-19T08:44:17.939Z,28.60
2018-04-19T08:46:45.513Z,28.90
2018-04-19T08:49:12.964Z,29.20
2018-04-19T08:51:40.452Z,29.60
2018-04-19T08:54:07.924Z,30.00
2018-04-19T08:56:35.441Z,29.60
2018-04-19T08:59:03.646Z,29.30
2018-04-19T09:01:31.145Z,29.30
2018-04-19T09:03:58.589Z,29.60
2018-04-19T09:06:26.049Z,29.70
2018-04-19T09:08:53.517Z,30.00
2018-04-19T09:11:21.026Z,30.10
2018-04-19T09:13:48.496Z,30.20
2018-04-19T09:16:15.952Z,30.50
2018-04-19T09:18:43.424Z,30.30
2018-04-19T09:21:10.913Z,30.40
2018-04-19T09:23:38.380Z,30.40
2018-04-19T09:42:57.577Z,31.40
2018-04-19T09:45:25.124Z,30.80
2018-04-19T09:47:52.702Z,31.10
2018-04-19T09:50:20.145Z,31.30
2018-04-19T09:52:47.592Z,31.50
2018-04-19T09:55:15.065Z,31.70
2018-04-19T17:57:50.929Z,25.90
2018-04-19T18:00:18.400Z,25.90
2018-04-19T18:02:45.848Z,25.70
2018-04-19T18:05:13.324Z,25.70
2018-04-19T18:07:40.765Z,25.50
2018-04-19T18:10:08.229Z,25.50
2018-04-19T18:12:36.458Z,25.20
2018-04-19T18:15:03.915Z,25.20
2018-04-19T18:17:31.370Z,25.00
2018-04-19T18:19:58.876Z,24.90
2018-04-19T18:22:26.340Z,24.80
2018-04-19T18:24:53.817Z,24.60
2018-04-19T18:27:21.284Z,24.40
2018-04-19T18:29:48.764Z,24.20
2018-04-19T18:32:16.225Z,24.00
2018-04-19T18:34:43.688Z,23.90
2018-04-19T18:37:11.152Z,23.70
2018-04-19T18:39:38.601Z,23.60
2018-04-19T18:42:06.112Z,23.40
2018-04-19T18:44:33.569Z,23.30
2018-04-19T18:47:01.059Z,23.10
2018-04-19T18:49:28.528Z,22.90
2018-04-19T18:51:56.103Z,22.80
2018-04-19T18:54:23.552Z,22.60
2018-04-19T18:56:51.025Z,22.50
2018-04-19T18:59:18.504Z,22.40
2018-04-19T19:01:46.080Z,22.20
2018-04-19T19:04:13.536Z,22.10
2018-04-19T19:06:41.003Z,22.00
2018-04-19T19:09:08.512Z,21.80
2018-04-19T19:11:35.904Z,21.80
2018-04-19T19:14:04.148Z,21.50
2018-04-19T19:16:31.601Z,21.50
2018-04-19T19:19:11.151Z,21.40
2018-04-19T19:21:38.603Z,21.30
2018-04-19T19:24:06.069Z,21.20
2018-04-19T19:26:33.524Z,21.10
2018-04-19T19:29:01.769Z,20.90
2018-04-19T19:31:29.217Z,20.90
2018-04-19T19:33:56.687Z,20.90
2018-04-19T19:36:24.137Z,20.80
2018-04-19T19:38:51.585Z,20.70
2018-04-19T19:41:19.815Z,20.70
2018-04-19T19:43:47.269Z,20.70
2018-04-19T19:46:14.736Z,20.80
2018-04-19T19:48:42.197Z,20.80
2018-04-19T19:51:10.598Z,20.90
2018-04-19T19:53:38.854Z,20.90
2018-04-19T19:56:07.080Z,21.00
2018-04-19T19:58:34.580Z,20.90
2018-04-19T20:01:02.060Z,21.10
2018-04-19T20:03:29.524Z,21.30
2018-04-19T20:05:57.043Z,21.30
2018-04-19T20:08:25.372Z,21.40
2018-04-19T20:10:52.939Z,21.30
2018-04-19T20:13:20.457Z,21.30
2018-04-19T20:15:48.949Z,21.10
2018-04-19T20:18:16.481Z,21.10
2018-04-19T20:20:44.037Z,21.10
2018-04-19T20:23:11.570Z,21.10
2018-04-19T20:25:39.194Z,21.00
2018-04-19T20:28:06.954Z,20.90
2018-04-19T20:30:34.767Z,20.90
2018-04-19T20:33:02.361Z,20.80
2018-04-19T20:35:30.204Z,20.80
2018-04-19T20:37:57.992Z,20.90
2018-04-19T20:40:26.011Z,20.90
2018-04-19T20:42:53.997Z,20.90
2018-04-19T20:45:22.773Z,20.80
2018-04-19T20:47:51.129Z,20.80
2018-04-19T20:50:19.408Z,20.70
2018-04-19T20:52:46.921Z,20.70
2018-04-19T20:55:14.457Z,20.60
2018-04-19T20:57:42.783Z,20.50
2018-04-19T21:00:10.308Z,20.40
2018-04-19T21:02:38.809Z,20.30
2018-04-19T21:05:07.088Z,20.10
2018-04-19T21:07:34.750Z,20.10
2018-04-19T21:10:03.126Z,19.90
2018-04-19T21:12:30.703Z,19.90
2018-04-19T21:14:58.289Z,19.70
2018-04-19T21:17:25.879Z,19.60
2018-04-19T21:19:54.520Z,19.30
2018-04-19T21:22:22.104Z,19.30
2018-04-19T21:24:51.108Z,19.10
2018-04-19T21:27:18.604Z,19.10
2018-04-19T21:29:46.069Z,19.10
2018-04-19T21:32:13.641Z,19.10
2018-04-19T21:34:41.092Z,19.10
2018-04-19T21:37:08.564Z,19.10
2018-04-19T21:39:36.115Z,19.00
2018-04-19T21:42:04.374Z,18.90
2018-04-19T21:44:31.785Z,18.80
2018-04-19T21:46:59.256Z,18.70
2018-04-19T21:49:26.708Z,18.60
2018-04-19T21:51:54.164Z,18.50
2018-04-19T21:54:22.420Z,18.30
2018-04-19T21:56:49.876Z,18.20
2018-04-19T21:59:17.349Z,18.10
2018-04-19T22:01:44.839Z,18.00
2018-04-19T22:04:12.265Z,17.90
2018-04-19T22:06:39.758Z,17.70
2018-04-19T22:09:07.224Z,17.60
2018-04-19T22:11:34.695Z,17.50
2018-04-19T22:14:02.172Z,17.30
2018-04-19T22:16:29.649Z,17.20
2018-04-19T22:18:57.215Z,17.20
2018-04-19T22:21:24.672Z,17.10
2018-04-19T22:23:52.128Z,17.00
2018-04-19T22:26:19.596Z,17.00
2018-04-19T22:28:47.044Z,16.80
2018-04-19T22:31:14.516Z,16.70
2018-04-19T22:33:42.032Z,16.70
2018-04-19T22:36:09.480Z,16.60
2018-04-19T22:38:36.948Z,16.60
2018-04-19T22:41:04.401Z,16.50
2018-04-19T22:43:31.864Z,16.50
2018-04-19T22:46:00.085Z,16.40
2018-04-19T22:48:27.540Z,16.40
2018-04-19T22:50:55.101Z,16.30
2018-04-19T22:53:23.320Z,16.20
2018-04-19T22:55:50.800Z,16.10
2018-04-19T22:58:18.264Z,16.10
2018-04-19T23:00:45.724Z,16.00
2018-04-19T23:03:13.177Z,15.90
2018-04-19T23:05:40.684Z,15.90
2018-04-19T23:08:08.140Z,15.90
2018-04-19T23:10:35.618Z,15.70
2018-04-19T23:13:03.084Z,15.70
2018-04-19T23:15:30.548Z,15.60
2018-04-19T23:17:58.000Z,15.50
2018-04-19T23:20:25.460Z,15.50
2018-04-19T23:22:52.968Z,15.50
2018-04-19T23:25:20.532Z,15.40
2018-04-19T23:27:48.033Z,15.40
2018-04-19T23:30:15.488Z,15.30
2018-04-19T23:32:42.945Z,15.20
2018-04-19T23:35:10.412Z,15.20
2018-04-19T23:37:37.935Z,15.20
2018-04-19T23:40:05.340Z,15.20
2018-04-19T23:42:32.812Z,15.20
2018-04-19T23:45:00.297Z,15.10
2018-04-19T23:47:27.757Z,15.10
2018-04-19T23:49:55.304Z,15.00
2018-04-19T23:52:22.758Z,15.00
2018-04-19T23:54:50.972Z,14.80
2018-04-19T23:57:18.440Z,14.80
2018-04-19T23:59:45.893Z,14.70
